Aviation Digital Data Service (ADDS)

Output produced by METARs form (2348 UTC 25 June 2019)
found at http://aviationweather.gov/metar/data/
 
KHDC 252329Z 2600/2624 07005KT P6SM VCTS SCT060CB SCT080 BKN100 
     FM260100 00000KT P6SM OVC100 
     FM261700 08004KT P6SM BKN110